Time;durP1;ratioP1;P1;durP2;ratioP2;P2;SDS_P1;SDS_P2;PMS_P1;PMS_P2;Temp;Humidity;BMP_temperature;BMP_pressure;BME280_temperature;BME280_humidity;BME280_pressure;Samples;Min_cycle;Max_cycle;Signal;HPM_P1;HPM_P2
2021/05/07 00:00:55;;;;;;;161.52;9.15;;;;;;;8.32;92.83;91912.44;4997630;28;20034;-77
2021/05/07 00:03:21;;;;;;;272.90;10.13;;;;;;;8.22;92.68;91910.78;5012924;28;20057;-77
2021/05/07 00:05:54;;;;;;;488.15;14.07;;;;;;;8.17;93.08;91912.66;5014276;28;20107;-77
2021/05/07 00:08:27;;;;;;;;;;;;;;;8.12;93.37;91903.09;5013359;28;20044;-77
2021/05/07 00:10:58;;;;;;;21.90;4.50;;;;;;;8.15;93.19;91902.53;5009698;28;19959;-76
2021/05/07 00:13:24;;;;;;;6.65;4.50;;;;;;;8.17;93.66;91889.97;5013540;28;20503;-77
2021/05/07 00:15:50;;;;;;;5.80;4.35;;;;;;;8.20;92.85;91894.63;5012114;28;20109;-77
2021/05/07 00:18:16;;;;;;;6.63;4.20;;;;;;;8.26;92.30;91895.31;5012157;28;20084;-77
2021/05/07 00:20:42;;;;;;;5.85;4.10;;;;;;;8.32;90.51;91899.41;5012987;28;20040;-77
2021/05/07 00:23:07;;;;;;;5.82;4.05;;;;;;;8.35;89.97;91891.00;5011631;28;20033;-77
2021/05/07 00:25:33;;;;;;;6.00;4.00;;;;;;;8.39;90.06;91897.19;5013435;28;20038;-77
2021/05/07 00:28:04;;;;;;;6.63;4.15;;;;;;;8.43;89.99;91892.22;5012586;28;20443;-77
2021/05/07 00:30:30;;;;;;;6.43;3.78;;;;;;;8.45;89.71;91880.44;5009075;28;20045;-77
2021/05/07 00:32:56;;;;;;;6.45;3.55;;;;;;;8.51;89.04;91875.88;4993030;28;20041;-77
2021/05/07 00:35:22;;;;;;;5.95;3.97;;;;;;;8.52;89.64;91870.38;5009136;28;20049;-77
2021/05/07 00:37:48;;;;;;;5.38;3.65;;;;;;;8.52;89.31;91861.78;5011041;28;20073;-77
2021/05/07 00:40:14;;;;;;;5.70;3.83;;;;;;;8.53;89.30;91861.50;5012586;28;20041;-77
2021/05/07 00:42:40;;;;;;;7.85;3.83;;;;;;;8.52;89.79;91844.31;5007799;28;20033;-77
2021/05/07 00:45:10;;;;;;;6.65;4.13;;;;;;;8.60;89.38;91860.34;5008286;28;20048;-77
2021/05/07 00:47:51;;;;;;;6.85;4.53;;;;;;;8.64;89.83;91863.94;4999148;28;20049;-77
2021/05/07 00:50:17;;;;;;;6.55;4.30;;;;;;;8.64;90.19;91866.53;4991602;28;20037;-77
2021/05/07 00:52:43;;;;;;;7.82;4.20;;;;;;;8.63;90.36;91868.38;5022291;28;20030;-77
2021/05/07 00:55:10;;;;;;;6.75;4.40;;;;;;;8.62;90.90;91858.22;5008047;28;20029;-77
2021/05/07 00:57:37;;;;;;;7.03;4.43;;;;;;;8.62;90.53;91866.03;5011405;28;20037;-77
2021/05/07 01:00:08;;;;;;;8.05;4.85;;;;;;;8.63;90.91;91880.66;5011542;28;20034;-77
2021/05/07 01:02:35;;;;;;;7.55;4.50;;;;;;;8.62;91.00;91872.03;4996937;28;20519;-77
2021/05/07 01:05:03;;;;;;;7.75;5.30;;;;;;;8.65;91.26;91868.09;5001711;28;20451;-77
2021/05/07 01:07:29;;;;;;;8.70;5.28;;;;;;;8.65;91.31;91873.31;5011788;28;20065;-77
2021/05/07 01:09:55;;;;;;;6.07;4.55;;;;;;;8.64;91.50;91862.09;5011261;28;20069;-77
2021/05/07 01:12:21;;;;;;;7.70;4.70;;;;;;;8.68;91.70;91867.50;4993807;28;20045;-77
2021/05/07 01:15:12;;;;;;;8.38;4.28;;;;;;;8.68;91.03;91876.09;5011784;28;20235;-77
2021/05/07 01:17:43;;;;;;;6.68;4.85;;;;;;;8.70;91.20;91871.38;5001921;28;20092;-77
2021/05/07 01:20:21;;;;;;;7.72;4.85;;;;;;;8.70;90.82;91868.00;5011264;28;20527;-77
2021/05/07 01:22:49;;;;;;;7.00;4.57;;;;;;;8.72;91.07;91873.69;5010148;28;20087;-77
2021/05/07 01:25:18;;;;;;;5.50;4.30;;;;;;;8.73;90.90;91860.34;5010979;28;20033;-77
2021/05/07 01:27:48;;;;;;;7.97;4.72;;;;;;;8.73;90.88;91859.59;5011444;28;20044;-77
2021/05/07 01:30:17;;;;;;;6.57;4.78;;;;;;;8.77;90.97;91859.78;5012992;28;20080;-77
2021/05/07 01:32:44;;;;;;;6.97;4.88;;;;;;;8.78;91.00;91850.88;5010749;28;20092;-77
2021/05/07 01:35:15;;;;;;;6.95;4.55;;;;;;;8.80;91.17;91859.19;5008112;28;20052;-77
2021/05/07 01:37:43;;;;;;;6.80;4.32;;;;;;;8.75;90.52;91865.28;5011374;28;20045;-77
2021/05/07 01:40:26;;;;;;;7.15;4.70;;;;;;;8.75;89.88;91855.63;5012075;28;20213;-77
2021/05/07 01:42:53;;;;;;;6.38;3.83;;;;;;;8.74;89.48;91855.94;5010304;28;20042;-77
2021/05/07 01:45:26;;;;;;;6.68;4.07;;;;;;;8.68;89.82;91841.41;5006884;28;20045;-77
2021/05/07 01:47:53;;;;;;;8.13;3.95;;;;;;;8.71;89.86;91851.25;5004829;28;20030;-76
2021/05/07 01:50:25;;;;;;;6.95;4.20;;;;;;;8.69;89.58;91845.56;5010647;28;20036;-77
2021/05/07 01:52:51;;;;;;;7.90;4.53;;;;;;;8.70;90.18;91844.50;4991382;28;20042;-77
2021/05/07 01:55:24;;;;;;;6.97;3.92;;;;;;;8.63;90.52;91834.47;5001886;28;20412;-77
2021/05/07 01:57:50;;;;;;;7.18;4.57;;;;;;;8.65;90.00;91836.78;5002367;28;20038;-77
2021/05/07 02:00:19;;;;;;;6.40;4.28;;;;;;;8.66;90.14;91833.09;5010866;28;20033;-77
2021/05/07 02:02:48;;;;;;;8.20;4.55;;;;;;;8.65;90.28;91831.56;5010134;28;20447;-77
2021/05/07 02:05:43;;;;;;;7.93;4.07;;;;;;;8.65;90.27;91834.94;5004935;28;20044;-77
2021/05/07 02:08:11;;;;;;;5.50;4.22;;;;;;;8.66;90.77;91833.09;5007320;28;20034;-77
2021/05/07 02:10:38;;;;;;;6.97;3.90;;;;;;;8.64;90.37;91827.41;5009540;28;20040;-77
2021/05/07 02:13:06;;;;;;;5.10;3.42;;;;;;;8.63;90.15;91831.09;4991547;28;20065;-77
2021/05/07 02:15:33;;;;;;;6.15;3.78;;;;;;;8.63;90.21;91824.03;4982330;28;20413;-77
2021/05/07 02:18:00;;;;;;;5.38;3.50;;;;;;;8.62;89.85;91816.47;5010475;28;20540;-77
2021/05/07 02:20:28;;;;;;;5.68;3.53;;;;;;;8.59;89.65;91822.28;5009058;28;20429;-77
2021/05/07 02:22:54;;;;;;;6.43;3.88;;;;;;;8.55;90.29;91828.06;5008288;28;20038;-77
2021/05/07 02:25:25;;;;;;;7.25;3.70;;;;;;;8.51;90.39;91827.13;5005882;28;20034;-77
2021/05/07 02:27:53;;;;;;;5.57;3.97;;;;;;;8.48;90.02;91838.09;5010262;28;20040;-77
2021/05/07 02:30:26;;;;;;;6.22;3.78;;;;;;;8.44;90.19;91831.91;5000895;28;20382;-77
2021/05/07 02:32:52;;;;;;;;;;;;;;;8.42;90.24;91828.84;5010429;28;20049;-77
2021/05/07 02:35:19;;;;;;;6.68;4.00;;;;;;;8.39;89.82;91826.78;5003171;28;19922;-77
2021/05/07 02:37:45;;;;;;;6.60;3.97;;;;;;;8.39;89.74;91834.59;4999032;28;20562;-77
2021/05/07 02:40:12;;;;;;;6.18;3.90;;;;;;;8.35;89.55;91831.00;5008955;28;20080;-77
2021/05/07 02:42:38;;;;;;;6.32;4.00;;;;;;;8.37;89.69;91836.72;5003661;28;20121;-76
2021/05/07 02:45:07;;;;;;;8.07;3.90;;;;;;;8.37;89.68;91828.88;4992597;28;20042;-77
2021/05/07 02:47:34;;;;;;;7.55;4.25;;;;;;;8.38;89.76;91832.28;4999809;28;20034;-76
2021/05/07 02:50:03;;;;;;;6.80;4.32;;;;;;;8.36;90.01;91827.34;5007951;28;20037;-77
2021/05/07 02:52:29;;;;;;;25.95;4.80;;;;;;;8.34;90.75;91819.81;5011193;28;20026;-77
2021/05/07 02:54:54;;;;;;;5.45;4.15;;;;;;;8.29;91.24;91814.69;5010511;28;20551;-77
2021/05/07 02:57:20;;;;;;;12.30;4.72;;;;;;;8.26;91.12;91817.09;5009474;28;20117;-77
2021/05/07 02:59:46;;;;;;;6.22;4.65;;;;;;;8.22;92.42;91818.72;4991409;28;20026;-77
2021/05/07 03:02:12;;;;;;;7.13;4.30;;;;;;;8.17;91.86;91806.53;5010635;28;20095;-77
2021/05/07 03:04:38;;;;;;;6.45;4.20;;;;;;;8.18;91.63;91807.34;5005120;28;20326;-77
2021/05/07 03:07:03;;;;;;;6.32;4.40;;;;;;;8.17;91.78;91806.53;4990813;28;20041;-77
2021/05/07 03:09:29;;;;;;;7.05;4.60;;;;;;;8.16;91.45;91801.63;5008084;28;20037;-77
2021/05/07 03:11:56;;;;;;;7.53;4.03;;;;;;;8.17;91.57;91792.75;5007523;28;20526;-77
2021/05/07 03:14:23;;;;;;;6.53;4.18;;;;;;;8.15;91.04;91803.47;5009011;28;20042;-77
2021/05/07 03:16:48;;;;;;;5.97;4.45;;;;;;;8.10;90.95;91809.53;5010527;28;20079;-77
2021/05/07 03:19:14;;;;;;;6.45;4.40;;;;;;;8.10;91.42;91809.53;5004832;28;20061;-77
2021/05/07 03:21:40;;;;;;;8.45;4.32;;;;;;;8.12;91.32;91815.22;5007988;28;20113;-77
2021/05/07 03:24:06;;;;;;;7.97;4.32;;;;;;;8.08;91.05;91806.47;5009915;28;20103;-77
2021/05/07 03:26:32;;;;;;;6.78;4.70;;;;;;;8.07;91.54;91807.50;5007197;28;20100;-77
2021/05/07 03:28:58;;;;;;;9.27;4.80;;;;;;;8.08;91.61;91811.66;5009368;28;20037;-77
2021/05/07 03:31:24;;;;;;;7.72;5.05;;;;;;;8.05;91.32;91814.84;5008309;28;20022;-77
2021/05/07 03:33:49;;;;;;;7.95;4.97;;;;;;;8.03;91.49;91816.19;5009593;28;20037;-77
2021/05/07 03:36:16;;;;;;;8.20;5.18;;;;;;;7.99;91.12;91808.16;5006004;28;20086;-77
2021/05/07 03:38:43;;;;;;;11.43;6.07;;;;;;;8.02;91.71;91804.22;5008959;28;20129;-77
2021/05/07 03:41:09;;;;;;;9.00;5.60;;;;;;;8.01;91.78;91798.22;5000527;28;20821;-77
2021/05/07 03:43:35;;;;;;;8.95;5.47;;;;;;;8.01;91.70;91808.63;4995011;28;20041;-77
2021/05/07 03:46:02;;;;;;;9.30;6.15;;;;;;;7.99;91.52;91796.97;5007152;28;20069;-77
2021/05/07 03:48:27;;;;;;;12.43;5.47;;;;;;;7.98;90.98;91809.22;5010235;28;20038;-77
2021/05/07 03:50:54;;;;;;;8.32;5.57;;;;;;;7.97;90.77;91812.91;5009886;28;20052;-77
2021/05/07 03:53:21;;;;;;;9.00;5.60;;;;;;;7.99;91.02;91813.34;4999287;28;20438;-77
2021/05/07 03:55:47;;;;;;;8.25;5.47;;;;;;;7.99;90.44;91813.34;5007280;28;20037;-77
2021/05/07 03:58:12;;;;;;;9.40;5.70;;;;;;;8.00;90.82;91807.09;5004811;28;20110;-77
2021/05/07 04:00:38;;;;;;;8.55;6.25;;;;;;;7.98;91.76;91804.00;5003480;28;20037;-77
2021/05/07 04:03:05;;;;;;;12.23;6.55;;;;;;;7.96;91.83;91811.34;5009534;28;20038;-77
2021/05/07 04:05:31;;;;;;;9.40;6.00;;;;;;;7.99;91.49;91815.19;4983210;28;20038;-77
2021/05/07 04:08:19;;;;;;;11.07;6.55;;;;;;;8.00;92.11;91820.13;5001019;28;20038;-77
2021/05/07 04:10:53;;;;;;;10.35;5.90;;;;;;;8.01;91.76;91816.47;4998837;28;20073;-77
2021/05/07 04:16:04;;;;;;;7.97;5.75;;;;;;;8.03;91.52;91811.72;5006193;28;20037;-77
2021/05/07 04:18:32;;;;;;;11.27;6.18;;;;;;;8.02;91.71;91815.41;4989830;28;20153;-77
2021/05/07 04:20:58;;;;;;;9.07;5.80;;;;;;;8.02;91.86;91818.03;5007006;28;20377;-77
2021/05/07 04:23:24;;;;;;;8.95;5.35;;;;;;;8.03;91.74;91821.41;4991649;28;20085;-76
2021/05/07 04:25:51;;;;;;;9.73;5.68;;;;;;;8.04;91.98;91823.72;4996997;28;20053;-77
2021/05/07 04:28:18;;;;;;;9.85;6.25;;;;;;;8.09;91.94;91821.03;5004451;28;20072;-77
2021/05/07 04:30:44;;;;;;;8.60;5.78;;;;;;;8.09;91.83;91828.84;5003314;28;20491;-77
2021/05/07 04:33:09;;;;;;;9.27;5.65;;;;;;;8.07;91.51;91830.19;4989592;28;20029;-77
2021/05/07 04:35:35;;;;;;;7.50;4.80;;;;;;;8.09;91.38;91826.25;4998213;28;20408;-76
2021/05/07 04:38:01;;;;;;;8.93;4.95;;;;;;;8.10;91.46;91822.56;4982209;28;20030;-75
2021/05/07 04:40:27;;;;;;;7.95;5.22;;;;;;;8.13;91.26;91834.28;5001695;28;20046;-75
2021/05/07 04:42:53;;;;;;;8.50;6.00;;;;;;;8.18;91.72;91833.41;5004390;28;20042;-75
2021/05/07 04:45:18;;;;;;;8.70;5.75;;;;;;;8.21;91.04;91838.03;4994055;28;20042;-75
2021/05/07 04:47:44;;;;;;;9.88;5.63;;;;;;;8.26;90.98;91837.94;5002514;28;20073;-75
2021/05/07 04:50:13;;;;;;;9.35;5.10;;;;;;;8.29;90.75;91840.00;4998556;28;20041;-76
2021/05/07 04:52:38;;;;;;;7.88;4.72;;;;;;;8.34;90.55;91842.50;5004690;28;20126;-77
2021/05/07 04:55:04;;;;;;;9.50;4.72;;;;;;;8.38;90.42;91843.50;5005086;28;20147;-77
2021/05/07 04:57:30;;;;;;;7.43;5.00;;;;;;;8.42;89.94;91844.50;5003905;28;20036;-77
2021/05/07 04:59:56;;;;;;;7.85;4.45;;;;;;;8.47;90.06;91836.56;4999981;28;20089;-75
2021/05/07 05:02:22;;;;;;;6.40;4.20;;;;;;;8.55;89.63;91838.50;4998862;28;20034;-77
2021/05/07 05:04:48;;;;;;;7.43;4.75;;;;;;;8.63;89.36;91841.53;5008686;28;20084;-77
2021/05/07 05:07:14;;;;;;;8.00;4.25;;;;;;;8.72;89.13;91842.38;5002463;28;20034;-76
2021/05/07 05:09:40;;;;;;;11.98;4.95;;;;;;;8.82;88.71;91857.84;5002530;28;20480;-78
2021/05/07 05:12:06;;;;;;;8.38;5.05;;;;;;;8.89;88.36;91841.78;4986169;28;20124;-77
2021/05/07 05:14:32;;;;;;;8.25;5.20;;;;;;;8.99;88.64;91840.84;5006093;28;20470;-76
2021/05/07 05:16:58;;;;;;;10.27;5.40;;;;;;;9.09;88.82;91845.84;5005689;28;20030;-76
2021/05/07 05:19:23;;;;;;;6.25;4.22;;;;;;;9.15;88.13;91850.69;5003133;28;20538;-76
2021/05/07 05:21:49;;;;;;;10.73;4.30;;;;;;;9.15;87.71;91849.91;5001041;28;20459;-76
2021/05/07 05:24:14;;;;;;;6.47;4.32;;;;;;;9.11;88.09;91859.38;4995800;28;20856;-76
2021/05/07 05:26:40;;;;;;;6.05;4.22;;;;;;;9.16;88.01;91859.28;5002011;28;20512;-76
2021/05/07 05:29:06;;;;;;;7.40;4.47;;;;;;;9.21;88.21;91853.19;5002516;28;20136;-76
2021/05/07 05:31:31;;;;;;;7.28;4.57;;;;;;;9.27;87.35;91855.41;5002685;28;20045;-76
2021/05/07 05:33:57;;;;;;;6.95;3.88;;;;;;;9.37;87.04;91857.03;4987864;28;20488;-77
2021/05/07 05:36:24;;;;;;;7.82;4.15;;;;;;;9.53;86.38;91860.09;4997074;28;20054;-77
2021/05/07 05:38:50;;;;;;;7.18;4.40;;;;;;;9.61;86.20;91869.06;5003240;28;20034;-77
2021/05/07 05:41:15;;;;;;;8.05;4.50;;;;;;;9.83;85.67;91863.09;5001593;28;20061;-77
2021/05/07 05:43:41;;;;;;;8.07;4.63;;;;;;;10.12;85.36;91863.47;4994738;28;20168;-77
2021/05/07 05:46:06;;;;;;;8.57;4.50;;;;;;;10.35;83.87;91858.25;5012390;28;20030;-77
2021/05/07 05:48:32;;;;;;;10.20;4.70;;;;;;;10.70;83.42;91861.06;5012047;28;20072;-77
2021/05/07 05:50:58;;;;;;;9.60;4.80;;;;;;;11.26;81.98;91864.78;5008882;28;20030;-77
2021/05/07 05:53:23;;;;;;;6.93;4.22;;;;;;;11.68;80.59;91873.00;5010792;28;20048;-76
2021/05/07 05:55:49;;;;;;;7.45;4.22;;;;;;;11.78;80.84;91875.34;5010950;28;20030;-76
2021/05/07 05:58:15;;;;;;;7.35;4.30;;;;;;;11.90;79.52;91866.13;4996961;28;20042;-77
2021/05/07 06:00:40;;;;;;;8.90;3.97;;;;;;;12.52;77.34;91863.13;4995903;28;20029;-77
2021/05/07 06:03:06;;;;;;;6.78;3.30;;;;;;;15.20;66.43;91860.78;5011169;28;20048;-77
2021/05/07 06:05:32;;;;;;;8.65;3.58;;;;;;;16.31;60.70;91852.69;5010874;28;20436;-77
2021/05/07 06:07:58;;;;;;;6.90;2.90;;;;;;;15.47;62.38;91869.09;5012065;28;20045;-77
2021/05/07 06:10:24;;;;;;;7.35;3.08;;;;;;;15.51;62.81;91877.88;5011684;28;20029;-77
2021/05/07 06:12:49;;;;;;;5.93;2.95;;;;;;;15.14;63.27;91877.91;5010923;28;20030;-77
2021/05/07 06:15:18;;;;;;;6.45;3.00;;;;;;;14.85;63.68;91884.13;5011251;28;20029;-77
2021/05/07 06:17:44;;;;;;;6.57;3.30;;;;;;;13.92;66.37;91887.69;5011653;28;20033;-77
2021/05/07 06:20:11;;;;;;;6.22;3.38;;;;;;;15.88;60.20;91881.28;5004069;28;20388;-77
2021/05/07 06:22:37;;;;;;;7.00;3.35;;;;;;;16.77;57.65;91885.59;4992309;28;20038;-77
2021/05/07 06:25:12;;;;;;;5.13;3.47;;;;;;;15.04;64.11;91896.75;4991375;28;20543;-77
2021/05/07 06:27:38;;;;;;;7.13;4.18;;;;;;;14.85;65.82;91894.66;4990309;28;20031;-77
2021/05/07 06:30:09;;;;;;;7.32;3.63;;;;;;;17.10;58.10;91892.50;4997525;28;20483;-77
2021/05/07 06:32:34;;;;;;;6.80;3.20;;;;;;;19.62;48.50;91885.03;5010047;28;20081;-77
2021/05/07 06:35:00;;;;;;;9.95;3.20;;;;;;;18.33;52.81;91891.47;4988759;28;20156;-77
2021/05/07 06:37:26;;;;;;;4.97;3.35;;;;;;;16.20;59.46;91886.72;5004533;28;20570;-77
2021/05/07 06:39:52;;;;;;;176.15;7.78;;;;;;;14.14;67.40;91889.22;5005838;28;20042;-77
2021/05/07 06:42:19;;;;;;;6.10;3.78;;;;;;;16.11;63.33;91878.94;5011337;28;20034;-77
2021/05/07 06:44:45;;;;;;;32.00;4.80;;;;;;;15.42;63.34;91875.38;5011057;28;20049;-77
2021/05/07 06:47:10;;;;;;;183.38;10.13;;;;;;;12.29;74.52;91875.66;5005400;28;20557;-77
2021/05/07 06:49:36;;;;;;;256.23;11.68;;;;;;;12.19;77.44;91874.13;5009943;28;20046;-77
2021/05/07 06:52:03;;;;;;;5.78;4.70;;;;;;;13.34;72.18;91873.50;5010957;28;20499;-77
2021/05/07 06:54:29;;;;;;;11.65;4.90;;;;;;;13.37;72.37;91878.13;5009170;28;20041;-77
2021/05/07 06:56:56;;;;;;;24.75;5.13;;;;;;;14.10;69.83;91877.81;5008655;28;20377;-77
2021/05/07 06:59:25;;;;;;;8.27;4.30;;;;;;;14.03;69.03;91880.19;4991154;28;20528;-78
2021/05/07 07:01:51;;;;;;;5.57;4.00;;;;;;;14.27;69.26;91868.97;4989617;28;20030;-77
2021/05/07 07:04:17;;;;;;;6.13;3.83;;;;;;;13.67;69.42;91881.53;4990722;28;20031;-77
2021/05/07 07:06:43;;;;;;;6.53;3.70;;;;;;;13.62;70.79;91875.66;5010606;28;20045;-77
2021/05/07 07:09:09;;;;;;;5.82;3.35;;;;;;;14.07;69.44;91872.41;5008642;28;20120;-77
2021/05/07 07:11:34;;;;;;;5.38;2.80;;;;;;;14.40;67.86;91869.81;5012257;28;20436;-77
2021/05/07 07:14:00;;;;;;;4.07;2.42;;;;;;;14.65;67.96;91868.03;5011533;28;20500;-77
2021/05/07 07:16:27;;;;;;;6.63;3.20;;;;;;;13.70;69.99;91870.34;5009425;28;20026;-77
2021/05/07 07:18:53;;;;;;;4.00;2.83;;;;;;;12.71;73.85;91883.75;5008748;28;20042;-77
2021/05/07 07:21:18;;;;;;;5.72;3.15;;;;;;;11.91;76.09;91883.38;5010333;28;20038;-77
2021/05/07 07:23:44;;;;;;;4.80;2.90;;;;;;;12.41;75.12;91881.06;5010489;28;20091;-77
2021/05/07 07:26:10;;;;;;;4.32;2.95;;;;;;;13.13;74.30;91887.34;5009983;28;20034;-77
2021/05/07 07:28:36;;;;;;;5.07;3.00;;;;;;;13.58;72.04;91887.91;5009431;28;20040;-77
2021/05/07 07:31:02;;;;;;;5.97;3.00;;;;;;;13.65;71.50;91885.56;5010721;28;20041;-77
2021/05/07 07:33:29;;;;;;;5.90;3.20;;;;;;;14.04;67.15;91894.88;5008865;28;20034;-77
2021/05/07 07:35:55;;;;;;;5.32;2.90;;;;;;;13.03;72.41;91885.03;5008137;28;20538;-77
2021/05/07 07:38:21;;;;;;;7.28;3.47;;;;;;;12.73;74.83;91889.47;5009485;28;20033;-77
2021/05/07 07:40:46;;;;;;;5.70;3.40;;;;;;;12.79;77.36;91895.31;4990717;28;20048;-77
2021/05/07 07:43:12;;;;;;;9.93;3.28;;;;;;;12.68;77.05;91903.56;5009883;28;20516;-76
2021/05/07 07:45:37;;;;;;;5.65;3.13;;;;;;;12.95;76.10;91898.22;5009247;28;20034;-77
2021/05/07 07:48:04;;;;;;;5.38;3.20;;;;;;;12.90;75.91;91893.91;5000852;28;20042;-77
2021/05/07 07:50:29;;;;;;;5.30;2.83;;;;;;;12.71;76.03;91895.03;4990239;28;20034;-77
2021/05/07 07:52:55;;;;;;;5.57;3.10;;;;;;;12.36;77.41;91896.19;4991037;28;20034;-77
2021/05/07 07:55:20;;;;;;;6.45;2.88;;;;;;;12.13;77.47;91901.59;4988558;28;20031;-77
2021/05/07 07:57:46;;;;;;;5.30;3.30;;;;;;;12.55;76.38;91901.13;4998733;28;20383;-77
2021/05/07 08:00:14;;;;;;;4.88;3.10;;;;;;;13.14;73.57;91893.34;5009109;28;20482;-77
2021/05/07 08:02:40;;;;;;;6.07;2.90;;;;;;;13.03;74.22;91892.16;4973007;28;20192;-77
2021/05/07 08:05:06;;;;;;;5.03;2.83;;;;;;;13.89;71.26;91888.34;4989342;28;20122;-77
2021/05/07 08:07:32;;;;;;;4.07;2.80;;;;;;;13.81;72.55;91881.28;5003248;28;20041;-77
2021/05/07 08:09:57;;;;;;;8.35;3.20;;;;;;;13.09;75.61;91889.03;5009969;28;20369;-77
2021/05/07 08:12:23;;;;;;;5.28;3.00;;;;;;;13.40;73.93;91890.66;4993759;28;20034;-77
2021/05/07 08:14:49;;;;;;;4.10;2.60;;;;;;;13.99;70.39;91892.44;5012610;28;20037;-77
2021/05/07 08:17:15;;;;;;;6.65;1.88;;;;;;;13.92;63.28;91886.94;5013464;28;20048;-77
2021/05/07 08:19:40;;;;;;;3.88;1.80;;;;;;;14.31;61.72;91882.28;5014219;28;20033;-77
2021/05/07 08:22:06;;;;;;;4.55;2.30;;;;;;;14.05;68.24;91890.38;5012763;28;20331;-77
2021/05/07 08:24:31;;;;;;;4.57;2.05;;;;;;;13.94;66.94;91888.16;5012245;28;20432;-77
2021/05/07 08:26:58;;;;;;;6.03;2.00;;;;;;;14.44;59.48;91891.00;5012264;28;20571;-77
2021/05/07 08:29:24;;;;;;;4.20;1.85;;;;;;;14.40;60.86;91895.38;5013420;28;20025;-77
2021/05/07 08:31:50;;;;;;;5.00;2.20;;;;;;;14.38;62.28;91901.72;5012441;28;20132;-77
2021/05/07 08:34:16;;;;;;;6.93;2.20;;;;;;;14.40;59.66;91906.66;5011401;28;20121;-77
2021/05/07 08:36:42;;;;;;;4.32;1.80;;;;;;;14.51;61.58;91888.59;5004905;28;20049;-77
2021/05/07 08:39:08;;;;;;;5.72;1.85;;;;;;;14.39;59.49;91902.50;4994307;28;20034;-77
2021/05/07 08:41:36;;;;;;;5.28;1.73;;;;;;;14.56;59.26;91907.63;4994565;28;20453;-77
2021/05/07 08:44:02;;;;;;;5.35;2.40;;;;;;;13.97;69.08;91914.91;4993777;28;20512;-77
2021/05/07 08:46:28;;;;;;;3.88;2.13;;;;;;;13.69;68.84;91905.66;4993858;28;20121;-77
2021/05/07 08:48:55;;;;;;;6.63;2.30;;;;;;;14.03;68.25;91918.91;4995220;28;20030;-77
2021/05/07 08:51:21;;;;;;;5.43;2.30;;;;;;;13.92;67.22;91918.50;4993913;28;20053;-77
2021/05/07 08:53:46;;;;;;;4.30;2.08;;;;;;;13.71;67.20;91918.47;5008997;28;20351;-77
2021/05/07 08:56:12;;;;;;;5.47;2.25;;;;;;;14.26;69.95;91927.25;4992108;28;20054;-77
2021/05/07 08:58:38;;;;;;;4.35;1.92;;;;;;;14.83;63.78;91931.09;5010183;28;20193;-77
2021/05/07 09:01:04;;;;;;;3.53;1.92;;;;;;;14.88;67.11;91936.94;5012796;28;20116;-77
2021/05/07 09:03:41;;;;;;;3.80;2.00;;;;;;;14.66;65.11;91932.81;5011623;28;20041;-77
2021/05/07 09:06:24;;;;;;;4.30;1.90;;;;;;;14.46;63.48;91941.47;5013214;28;20400;-77
2021/05/07 09:08:50;;;;;;;3.90;1.85;;;;;;;14.68;61.26;91932.47;5012461;28;20037;-77
2021/05/07 09:11:17;;;;;;;5.45;1.80;;;;;;;15.17;64.50;91941.25;4993003;28;20030;-77
2021/05/07 09:13:43;;;;;;;3.13;1.65;;;;;;;14.68;63.42;91941.16;4995959;28;20132;-77
2021/05/07 09:16:10;;;;;;;3.38;1.70;;;;;;;14.70;62.79;91943.44;5009018;28;20053;-77
2021/05/07 09:18:49;;;;;;;4.18;1.70;;;;;;;15.00;64.07;91941.47;5011707;28;20033;-77
2021/05/07 09:21:15;;;;;;;4.93;1.83;;;;;;;14.99;60.40;91938.06;5013276;28;20103;-77
2021/05/07 09:23:43;;;;;;;2.25;1.30;;;;;;;14.75;56.54;91938.00;5012836;28;20520;-77
2021/05/07 09:26:10;;;;;;;2.50;1.45;;;;;;;15.22;59.24;91939.53;5009195;28;20034;-77
2021/05/07 09:28:38;;;;;;;2.80;1.33;;;;;;;14.36;59.69;91938.16;5012156;28;20026;-77
2021/05/07 09:31:14;;;;;;;2.50;1.20;;;;;;;14.63;57.52;91936.06;5012542;28;20041;-77
2021/05/07 09:33:45;;;;;;;3.75;1.60;;;;;;;14.58;60.85;91936.28;5011065;28;20123;-77
2021/05/07 09:36:29;;;;;;;5.28;1.60;;;;;;;14.09;58.60;91933.38;5010235;28;20046;-77
2021/05/07 09:38:59;;;;;;;3.30;1.30;;;;;;;14.74;60.50;91931.94;5013634;28;20033;-77
2021/05/07 09:41:25;;;;;;;2.50;1.23;;;;;;;15.23;58.98;91938.44;5014345;28;20065;-78
2021/05/07 09:43:51;;;;;;;2.28;1.20;;;;;;;14.99;56.04;91937.28;5016104;28;20030;-77
2021/05/07 09:46:17;;;;;;;4.88;1.20;;;;;;;14.84;54.21;91937.91;5012828;28;20280;-78
2021/05/07 09:48:43;;;;;;;2.25;1.23;;;;;;;15.13;53.54;91937.78;5014767;28;20117;-77
2021/05/07 09:51:12;;;;;;;2.67;1.50;;;;;;;14.60;58.61;91934.09;5011314;28;20068;-77
2021/05/07 09:53:39;;;;;;;2.58;1.20;;;;;;;14.99;56.99;91938.06;5011745;28;20045;-78
2021/05/07 09:56:16;;;;;;;2.65;1.27;;;;;;;15.09;56.92;91938.75;5011634;28;20494;-77
2021/05/07 09:58:42;;;;;;;1.98;1.13;;;;;;;15.47;52.83;91935.81;5010581;28;20385;-77
2021/05/07 10:01:09;;;;;;;3.78;1.30;;;;;;;15.08;57.85;91940.59;5002049;28;20038;-77
2021/05/07 10:03:34;;;;;;;2.67;1.20;;;;;;;15.13;55.87;91943.03;4991250;28;20092;-77
2021/05/07 10:06:04;;;;;;;2.72;1.30;;;;;;;15.38;54.43;91943.06;4991197;28;20129;-77
2021/05/07 10:08:41;;;;;;;1.92;1.20;;;;;;;15.22;52.56;91945.59;4996736;28;20488;-77
2021/05/07 10:11:07;;;;;;;3.33;1.50;;;;;;;15.30;56.60;91951.84;5011835;28;20037;-77
2021/05/07 10:13:34;;;;;;;1.42;0.90;;;;;;;15.78;51.57;91950.34;5011983;28;20069;-77
2021/05/07 10:16:10;;;;;;;3.38;1.17;;;;;;;15.82;49.55;91943.31;5011858;28;20061;-77
2021/05/07 10:18:38;;;;;;;2.00;1.02;;;;;;;15.91;47.78;91932.66;5008616;28;20044;-77
2021/05/07 10:21:06;;;;;;;2.53;1.33;;;;;;;15.51;50.17;91941.19;5006369;28;20030;-75
2021/05/07 10:23:33;;;;;;;1.30;0.90;;;;;;;15.50;46.70;91944.94;5001812;28;20053;-76
2021/05/07 10:26:09;;;;;;;2.42;1.10;;;;;;;15.81;52.55;91939.16;5009335;28;20041;-76
2021/05/07 10:28:51;;;;;;;3.58;1.20;;;;;;;15.86;48.21;91932.88;5029206;28;20037;-75
2021/05/07 10:31:18;;;;;;;3.08;1.33;;;;;;;16.03;54.71;91936.03;5001268;28;20042;-77
2021/05/07 10:33:58;;;;;;;1.42;0.90;;;;;;;16.47;45.38;91927.47;5010243;28;20041;-75
2021/05/07 10:36:53;;;;;;;3.65;1.40;;;;;;;16.45;45.35;91943.63;5004451;28;20132;-76
2021/05/07 10:39:28;;;;;;;1.70;0.82;;;;;;;16.31;45.64;91947.75;5003801;28;20041;-76
2021/05/07 10:41:56;;;;;;;3.45;1.10;;;;;;;16.54;48.02;91943.50;5005504;28;20038;-76
2021/05/07 10:44:24;;;;;;;2.35;1.10;;;;;;;15.65;49.54;91940.88;5007269;28;20068;-75
2021/05/07 10:47:06;;;;;;;3.25;1.20;;;;;;;16.35;49.61;91946.75;5007592;28;20038;-75
2021/05/07 10:49:39;;;;;;;6.05;1.58;;;;;;;16.60;50.66;91938.75;5010872;28;20052;-77
2021/05/07 10:52:06;;;;;;;2.50;1.20;;;;;;;16.02;50.69;91946.94;5008083;28;20037;-77
2021/05/07 10:54:43;;;;;;;3.63;1.40;;;;;;;16.49;50.27;91940.34;5011989;28;20334;-77
2021/05/07 10:57:22;;;;;;;2.92;1.20;;;;;;;16.89;51.65;91947.47;5007849;28;20034;-77
2021/05/07 11:00:16;;;;;;;2.75;1.30;;;;;;;16.71;51.43;91945.09;4991692;28;20042;-77
2021/05/07 11:02:47;;;;;;;5.40;1.30;;;;;;;15.96;51.39;91943.75;4993069;28;20052;-78
2021/05/07 11:05:33;;;;;;;3.05;1.30;;;;;;;16.18;50.71;91939.84;5001046;28;20592;-78
2021/05/07 11:07:59;;;;;;;2.85;1.20;;;;;;;16.01;51.84;91937.47;5003894;28;20136;-77
2021/05/07 11:10:28;;;;;;;3.67;1.60;;;;;;;15.93;53.46;91941.75;5010869;28;20121;-77
2021/05/07 11:12:55;;;;;;;2.60;1.30;;;;;;;16.04;53.93;91947.38;5011167;28;20116;-77
2021/05/07 11:15:21;;;;;;;4.22;1.60;;;;;;;15.73;53.52;91943.44;5004884;28;20402;-77
2021/05/07 11:18:05;;;;;;;3.45;1.60;;;;;;;15.91;53.18;91943.19;5009232;28;20053;-77
2021/05/07 11:20:35;;;;;;;3.88;1.60;;;;;;;15.91;55.54;91943.97;5011144;28;20451;-77
2021/05/07 11:23:03;;;;;;;4.35;1.50;;;;;;;16.31;52.59;91932.69;5011189;28;20116;-77
2021/05/07 11:25:31;;;;;;;3.10;1.50;;;;;;;16.58;52.35;91933.81;5008925;28;20077;-77
2021/05/07 11:28:07;;;;;;;3.25;1.50;;;;;;;16.65;52.86;91926.06;5010619;28;20141;-77
2021/05/07 11:30:33;;;;;;;7.22;1.98;;;;;;;15.99;52.46;91921.97;5011199;28;20092;-77
2021/05/07 11:33:07;;;;;;;5.25;1.70;;;;;;;15.96;54.03;91924.50;4995244;28;20034;-77
2021/05/07 11:35:33;;;;;;;5.13;1.92;;;;;;;15.98;54.06;91928.34;5006316;28;20064;-77
2021/05/07 11:37:59;;;;;;;3.72;1.60;;;;;;;15.99;53.43;91929.88;5010871;28;20033;-77
2021/05/07 11:40:34;;;;;;;4.35;1.70;;;;;;;15.90;55.08;91926.59;5010989;28;20054;-77
2021/05/07 11:43:07;;;;;;;4.13;1.73;;;;;;;15.99;52.73;91931.75;5004187;28;20038;-77